sensor_id;sensor_type;location;lat;lon;timestamp;P1;durP1;ratioP1;P2;durP2;ratioP2
37641;SDS011;23486;51.956;5.888;2023-10-09T00:00:30;23.27;;;11.40;;
37641;SDS011;23486;51.956;5.888;2023-10-09T00:02:56;21.60;;;11.38;;
37641;SDS011;23486;51.956;5.888;2023-10-09T00:05:25;18.42;;;10.70;;
37641;SDS011;23486;51.956;5.888;2023-10-09T00:08:10;26.08;;;11.68;;
37641;SDS011;23486;51.956;5.888;2023-10-09T00:10:43;18.90;;;10.98;;
37641;SDS011;23486;51.956;5.888;2023-10-09T00:13:18;21.33;;;11.80;;
37641;SDS011;23486;51.956;5.888;2023-10-09T00:15:45;22.60;;;11.73;;
37641;SDS011;23486;51.956;5.888;2023-10-09T00:18:17;21.75;;;11.60;;
37641;SDS011;23486;51.956;5.888;2023-10-09T00:20:48;21.40;;;11.52;;
37641;SDS011;23486;51.956;5.888;2023-10-09T00:23:19;18.02;;;10.48;;
37641;SDS011;23486;51.956;5.888;2023-10-09T00:25:51;22.55;;;11.85;;
37641;SDS011;23486;51.956;5.888;2023-10-09T00:28:34;24.40;;;12.02;;
37641;SDS011;23486;51.956;5.888;2023-10-09T00:31:06;21.85;;;11.63;;
37641;SDS011;23486;51.956;5.888;2023-10-09T00:33:33;22.95;;;13.48;;
37641;SDS011;23486;51.956;5.888;2023-10-09T00:36:03;23.63;;;11.82;;
37641;SDS011;23486;51.956;5.888;2023-10-09T00:38:39;20.23;;;11.50;;
37641;SDS011;23486;51.956;5.888;2023-10-09T00:41:14;22.38;;;12.43;;
37641;SDS011;23486;51.956;5.888;2023-10-09T00:43:45;23.25;;;12.63;;
37641;SDS011;23486;51.956;5.888;2023-10-09T00:46:14;20.83;;;10.57;;
37641;SDS011;23486;51.956;5.888;2023-10-09T00:48:45;17.77;;;10.70;;
37641;SDS011;23486;51.956;5.888;2023-10-09T00:51:19;24.80;;;12.80;;
37641;SDS011;23486;51.956;5.888;2023-10-09T00:53:59;23.70;;;13.57;;
37641;SDS011;23486;51.956;5.888;2023-10-09T00:56:31;23.35;;;11.95;;
37641;SDS011;23486;51.956;5.888;2023-10-09T00:59:04;25.80;;;12.93;;
37641;SDS011;23486;51.956;5.888;2023-10-09T01:01:40;26.08;;;13.48;;
37641;SDS011;23486;51.956;5.888;2023-10-09T01:04:21;26.50;;;14.25;;
37641;SDS011;23486;51.956;5.888;2023-10-09T01:06:47;25.98;;;14.60;;
37641;SDS011;23486;51.956;5.888;2023-10-09T01:09:29;28.30;;;13.63;;
37641;SDS011;23486;51.956;5.888;2023-10-09T01:12:01;26.80;;;15.05;;
37641;SDS011;23486;51.956;5.888;2023-10-09T01:14:26;26.13;;;14.00;;
37641;SDS011;23486;51.956;5.888;2023-10-09T01:16:52;26.92;;;14.55;;
37641;SDS011;23486;51.956;5.888;2023-10-09T01:19:20;29.40;;;15.90;;
37641;SDS011;23486;51.956;5.888;2023-10-09T01:21:50;28.13;;;15.50;;
37641;SDS011;23486;51.956;5.888;2023-10-09T01:24:16;25.83;;;14.77;;
37641;SDS011;23486;51.956;5.888;2023-10-09T01:26:44;29.17;;;16.70;;
37641;SDS011;23486;51.956;5.888;2023-10-09T01:29:21;28.27;;;16.95;;
37641;SDS011;23486;51.956;5.888;2023-10-09T01:31:51;32.55;;;17.08;;
37641;SDS011;23486;51.956;5.888;2023-10-09T01:34:22;30.48;;;17.60;;
37641;SDS011;23486;51.956;5.888;2023-10-09T01:37:07;31.58;;;18.33;;
37641;SDS011;23486;51.956;5.888;2023-10-09T01:39:54;29.42;;;16.50;;
37641;SDS011;23486;51.956;5.888;2023-10-09T01:42:53;32.53;;;18.25;;
37641;SDS011;23486;51.956;5.888;2023-10-09T01:45:19;27.70;;;16.58;;
37641;SDS011;23486;51.956;5.888;2023-10-09T01:47:44;30.23;;;17.08;;
37641;SDS011;23486;51.956;5.888;2023-10-09T01:50:22;31.00;;;18.50;;
37641;SDS011;23486;51.956;5.888;2023-10-09T01:53:00;29.90;;;17.63;;
37641;SDS011;23486;51.956;5.888;2023-10-09T01:55:27;31.60;;;17.42;;
37641;SDS011;23486;51.956;5.888;2023-10-09T01:57:59;31.27;;;19.77;;
37641;SDS011;23486;51.956;5.888;2023-10-09T02:00:30;32.72;;;19.95;;
37641;SDS011;23486;51.956;5.888;2023-10-09T02:03:06;36.15;;;20.48;;
37641;SDS011;23486;51.956;5.888;2023-10-09T02:05:36;31.42;;;19.70;;
37641;SDS011;23486;51.956;5.888;2023-10-09T02:08:02;35.05;;;19.88;;
37641;SDS011;23486;51.956;5.888;2023-10-09T02:10:29;29.55;;;19.00;;
37641;SDS011;23486;51.956;5.888;2023-10-09T02:13:04;35.90;;;20.38;;
37641;SDS011;23486;51.956;5.888;2023-10-09T02:15:39;30.30;;;18.55;;
37641;SDS011;23486;51.956;5.888;2023-10-09T02:18:11;35.85;;;21.38;;
37641;SDS011;23486;51.956;5.888;2023-10-09T02:23:29;31.73;;;19.50;;
37641;SDS011;23486;51.956;5.888;2023-10-09T02:26:25;32.92;;;21.00;;
37641;SDS011;23486;51.956;5.888;2023-10-09T02:28:55;34.47;;;20.73;;
37641;SDS011;23486;51.956;5.888;2023-10-09T02:31:24;24.80;;;16.38;;
37641;SDS011;23486;51.956;5.888;2023-10-09T02:33:52;29.60;;;18.88;;
37641;SDS011;23486;51.956;5.888;2023-10-09T02:36:20;32.45;;;20.55;;
37641;SDS011;23486;51.956;5.888;2023-10-09T02:38:49;31.73;;;19.77;;
37641;SDS011;23486;51.956;5.888;2023-10-09T02:41:18;29.00;;;18.65;;
37641;SDS011;23486;51.956;5.888;2023-10-09T02:43:48;30.35;;;19.35;;
37641;SDS011;23486;51.956;5.888;2023-10-09T02:46:19;34.13;;;19.48;;
37641;SDS011;23486;51.956;5.888;2023-10-09T02:48:45;35.17;;;21.33;;
37641;SDS011;23486;51.956;5.888;2023-10-09T02:51:20;33.83;;;20.63;;
37641;SDS011;23486;51.956;5.888;2023-10-09T02:54:00;33.58;;;20.65;;
37641;SDS011;23486;51.956;5.888;2023-10-09T02:56:46;31.85;;;20.15;;
37641;SDS011;23486;51.956;5.888;2023-10-09T02:59:20;27.30;;;19.02;;
37641;SDS011;23486;51.956;5.888;2023-10-09T03:01:47;32.42;;;20.70;;
37641;SDS011;23486;51.956;5.888;2023-10-09T03:04:13;31.40;;;20.17;;
37641;SDS011;23486;51.956;5.888;2023-10-09T03:06:42;30.50;;;20.17;;
37641;SDS011;23486;51.956;5.888;2023-10-09T03:09:18;29.38;;;19.83;;
37641;SDS011;23486;51.956;5.888;2023-10-09T03:12:02;30.20;;;19.75;;
37641;SDS011;23486;51.956;5.888;2023-10-09T03:14:30;28.02;;;19.90;;
37641;SDS011;23486;51.956;5.888;2023-10-09T03:19:29;25.98;;;17.33;;
37641;SDS011;23486;51.956;5.888;2023-10-09T03:22:02;28.25;;;17.55;;
37641;SDS011;23486;51.956;5.888;2023-10-09T03:24:28;27.17;;;18.60;;
37641;SDS011;23486;51.956;5.888;2023-10-09T03:26:55;27.98;;;18.75;;
37641;SDS011;23486;51.956;5.888;2023-10-09T03:29:22;28.10;;;19.42;;
37641;SDS011;23486;51.956;5.888;2023-10-09T03:31:48;32.38;;;19.45;;
37641;SDS011;23486;51.956;5.888;2023-10-09T03:34:15;28.63;;;20.08;;
37641;SDS011;23486;51.956;5.888;2023-10-09T03:36:42;30.13;;;19.38;;
37641;SDS011;23486;51.956;5.888;2023-10-09T03:39:09;28.27;;;19.35;;
37641;SDS011;23486;51.956;5.888;2023-10-09T03:41:55;26.90;;;18.40;;
37641;SDS011;23486;51.956;5.888;2023-10-09T03:44:23;38.15;;;21.83;;
37641;SDS011;23486;51.956;5.888;2023-10-09T03:46:50;32.55;;;20.88;;
37641;SDS011;23486;51.956;5.888;2023-10-09T03:49:16;31.17;;;20.73;;
37641;SDS011;23486;51.956;5.888;2023-10-09T03:51:48;31.48;;;20.00;;
37641;SDS011;23486;51.956;5.888;2023-10-09T03:54:14;28.55;;;18.42;;
37641;SDS011;23486;51.956;5.888;2023-10-09T03:56:41;28.40;;;19.30;;
37641;SDS011;23486;51.956;5.888;2023-10-09T03:59:07;28.45;;;18.92;;
37641;SDS011;23486;51.956;5.888;2023-10-09T04:01:35;24.42;;;17.25;;
37641;SDS011;23486;51.956;5.888;2023-10-09T04:04:05;29.45;;;19.65;;
37641;SDS011;23486;51.956;5.888;2023-10-09T04:06:35;25.98;;;18.23;;
37641;SDS011;23486;51.956;5.888;2023-10-09T04:09:06;25.33;;;17.25;;
37641;SDS011;23486;51.956;5.888;2023-10-09T04:11:45;24.42;;;17.95;;
37641;SDS011;23486;51.956;5.888;2023-10-09T04:14:14;29.02;;;19.13;;
37641;SDS011;23486;51.956;5.888;2023-10-09T04:16:58;35.50;;;23.77;;
37641;SDS011;23486;51.956;5.888;2023-10-09T04:22:06;29.98;;;21.02;;
37641;SDS011;23486;51.956;5.888;2023-10-09T04:24:34;28.00;;;19.48;;
37641;SDS011;23486;51.956;5.888;2023-10-09T04:27:09;27.27;;;18.52;;
37641;SDS011;23486;51.956;5.888;2023-10-09T04:29:35;26.40;;;17.40;;
37641;SDS011;23486;51.956;5.888;2023-10-09T04:32:12;28.35;;;18.23;;
37641;SDS011;23486;51.956;5.888;2023-10-09T04:34:50;34.58;;;20.60;;
37641;SDS011;23486;51.956;5.888;2023-10-09T04:37:42;27.98;;;19.10;;
37641;SDS011;23486;51.956;5.888;2023-10-09T04:40:10;25.00;;;17.48;;
37641;SDS011;23486;51.956;5.888;2023-10-09T04:42:37;29.80;;;19.90;;
37641;SDS011;23486;51.956;5.888;2023-10-09T04:45:04;22.60;;;17.17;;
37641;SDS011;23486;51.956;5.888;2023-10-09T04:47:31;25.60;;;18.58;;
37641;SDS011;23486;51.956;5.888;2023-10-09T04:52:33;28.73;;;21.10;;
37641;SDS011;23486;51.956;5.888;2023-10-09T04:54:59;31.17;;;19.52;;
37641;SDS011;23486;51.956;5.888;2023-10-09T04:57:34;27.58;;;18.45;;
37641;SDS011;23486;51.956;5.888;2023-10-09T05:00:07;24.97;;;16.97;;
37641;SDS011;23486;51.956;5.888;2023-10-09T05:02:52;21.63;;;14.45;;
37641;SDS011;23486;51.956;5.888;2023-10-09T05:05:33;24.67;;;16.63;;
37641;SDS011;23486;51.956;5.888;2023-10-09T05:08:08;24.10;;;15.63;;
37641;SDS011;23486;51.956;5.888;2023-10-09T05:10:50;22.67;;;16.33;;
37641;SDS011;23486;51.956;5.888;2023-10-09T05:16:07;27.38;;;18.05;;
37641;SDS011;23486;51.956;5.888;2023-10-09T05:18:51;28.10;;;18.15;;
37641;SDS011;23486;51.956;5.888;2023-10-09T05:21:24;25.88;;;17.88;;
37641;SDS011;23486;51.956;5.888;2023-10-09T05:24:09;23.60;;;17.65;;
37641;SDS011;23486;51.956;5.888;2023-10-09T05:26:48;25.58;;;15.90;;
37641;SDS011;23486;51.956;5.888;2023-10-09T05:29:15;21.83;;;16.77;;
37641;SDS011;23486;51.956;5.888;2023-10-09T05:31:58;26.42;;;16.55;;
37641;SDS011;23486;51.956;5.888;2023-10-09T05:34:30;25.17;;;15.00;;
37641;SDS011;23486;51.956;5.888;2023-10-09T05:37:00;24.52;;;15.57;;
37641;SDS011;23486;51.956;5.888;2023-10-09T05:39:56;20.40;;;13.82;;
37641;SDS011;23486;51.956;5.888;2023-10-09T05:42:34;19.73;;;14.65;;
37641;SDS011;23486;51.956;5.888;2023-10-09T05:45:06;18.73;;;14.55;;
37641;SDS011;23486;51.956;5.888;2023-10-09T05:47:54;19.60;;;14.27;;
37641;SDS011;23486;51.956;5.888;2023-10-09T05:50:29;21.50;;;14.65;;
37641;SDS011;23486;51.956;5.888;2023-10-09T05:52:58;23.70;;;16.40;;
37641;SDS011;23486;51.956;5.888;2023-10-09T05:55:27;21.00;;;15.27;;
37641;SDS011;23486;51.956;5.888;2023-10-09T05:58:12;21.25;;;14.85;;
37641;SDS011;23486;51.956;5.888;2023-10-09T06:00:56;24.73;;;15.80;;
37641;SDS011;23486;51.956;5.888;2023-10-09T06:03:50;24.10;;;16.40;;
37641;SDS011;23486;51.956;5.888;2023-10-09T06:06:22;24.45;;;14.95;;
37641;SDS011;23486;51.956;5.888;2023-10-09T06:09:06;23.67;;;14.50;;
37641;SDS011;23486;51.956;5.888;2023-10-09T06:11:39;22.73;;;15.13;;
37641;SDS011;23486;51.956;5.888;2023-10-09T06:14:16;22.10;;;14.05;;
37641;SDS011;23486;51.956;5.888;2023-10-09T06:16:55;20.98;;;14.32;;
37641;SDS011;23486;51.956;5.888;2023-10-09T06:19:22;23.80;;;14.48;;
37641;SDS011;23486;51.956;5.888;2023-10-09T06:21:55;21.77;;;13.48;;
37641;SDS011;23486;51.956;5.888;2023-10-09T06:24:43;18.92;;;13.23;;
37641;SDS011;23486;51.956;5.888;2023-10-09T06:27:18;18.27;;;12.73;;
37641;SDS011;23486;51.956;5.888;2023-10-09T06:29:56;19.52;;;12.80;;
37641;SDS011;23486;51.956;5.888;2023-10-09T06:32:41;19.58;;;12.98;;
37641;SDS011;23486;51.956;5.888;2023-10-09T06:35:16;23.33;;;13.52;;
37641;SDS011;23486;51.956;5.888;2023-10-09T06:37:52;19.45;;;13.52;;
37641;SDS011;23486;51.956;5.888;2023-10-09T06:40:26;20.95;;;14.63;;
37641;SDS011;23486;51.956;5.888;2023-10-09T06:43:11;21.00;;;14.10;;
37641;SDS011;23486;51.956;5.888;2023-10-09T06:45:43;22.55;;;13.80;;
37641;SDS011;23486;51.956;5.888;2023-10-09T06:48:09;21.40;;;14.38;;
37641;SDS011;23486;51.956;5.888;2023-10-09T06:50:55;26.05;;;14.07;;
37641;SDS011;23486;51.956;5.888;2023-10-09T06:53:21;19.55;;;12.90;;
37641;SDS011;23486;51.956;5.888;2023-10-09T06:55:53;23.40;;;14.40;;
37641;SDS011;23486;51.956;5.888;2023-10-09T06:58:31;24.13;;;15.57;;
37641;SDS011;23486;51.956;5.888;2023-10-09T07:01:07;21.83;;;14.63;;
37641;SDS011;23486;51.956;5.888;2023-10-09T07:03:56;21.58;;;14.18;;
37641;SDS011;23486;51.956;5.888;2023-10-09T07:06:35;27.45;;;15.43;;
37641;SDS011;23486;51.956;5.888;2023-10-09T07:09:01;22.83;;;14.88;;
37641;SDS011;23486;51.956;5.888;2023-10-09T07:11:31;23.35;;;14.38;;
37641;SDS011;23486;51.956;5.888;2023-10-09T07:16:54;16.02;;;10.73;;
37641;SDS011;23486;51.956;5.888;2023-10-09T07:19:25;24.52;;;14.70;;
37641;SDS011;23486;51.956;5.888;2023-10-09T07:22:23;22.88;;;15.32;;
37641;SDS011;23486;51.956;5.888;2023-10-09T07:24:55;21.50;;;15.13;;
37641;SDS011;23486;51.956;5.888;2023-10-09T07:27:21;22.73;;;15.30;;
37641;SDS011;23486;51.956;5.888;2023-10-09T07:30:09;24.65;;;14.77;;
37641;SDS011;23486;51.956;5.888;2023-10-09T07:33:07;23.17;;;15.32;;
37641;SDS011;23486;51.956;5.888;2023-10-09T07:35:36;20.70;;;15.90;;
37641;SDS011;23486;51.956;5.888;2023-10-09T07:38:09;20.70;;;13.90;;
37641;SDS011;23486;51.956;5.888;2023-10-09T07:40:36;21.10;;;14.48;;
37641;SDS011;23486;51.956;5.888;2023-10-09T07:43:25;27.98;;;17.23;;
37641;SDS011;23486;51.956;5.888;2023-10-09T07:46:01;24.60;;;16.67;;
37641;SDS011;23486;51.956;5.888;2023-10-09T07:48:46;24.00;;;16.60;;
37641;SDS011;23486;51.956;5.888;2023-10-09T07:51:20;22.35;;;15.10;;
37641;SDS011;23486;51.956;5.888;2023-10-09T07:53:51;23.23;;;15.85;;
37641;SDS011;23486;51.956;5.888;2023-10-09T07:56:32;22.58;;;14.18;;
37641;SDS011;23486;51.956;5.888;2023-10-09T07:59:10;22.67;;;14.88;;
37641;SDS011;23486;51.956;5.888;2023-10-09T08:01:57;20.70;;;14.90;;
37641;SDS011;23486;51.956;5.888;2023-10-09T08:04:27;21.38;;;14.25;;
37641;SDS011;23486;51.956;5.888;2023-10-09T08:07:08;20.95;;;14.50;;
37641;SDS011;23486;51.956;5.888;2023-10-09T08:09:35;19.52;;;13.40;;
37641;SDS011;23486;51.956;5.888;2023-10-09T08:12:13;23.00;;;14.52;;
37641;SDS011;23486;51.956;5.888;2023-10-09T08:14:59;22.15;;;14.68;;
37641;SDS011;23486;51.956;5.888;2023-10-09T08:17:47;19.50;;;13.05;;
37641;SDS011;23486;51.956;5.888;2023-10-09T08:20:24;21.45;;;13.82;;
37641;SDS011;23486;51.956;5.888;2023-10-09T08:22:54;23.80;;;15.15;;
37641;SDS011;23486;51.956;5.888;2023-10-09T08:25:23;20.63;;;13.53;;
37641;SDS011;23486;51.956;5.888;2023-10-09T08:27:54;20.80;;;13.57;;
37641;SDS011;23486;51.956;5.888;2023-10-09T08:30:22;25.80;;;15.00;;
37641;SDS011;23486;51.956;5.888;2023-10-09T08:32:51;21.10;;;15.50;;
37641;SDS011;23486;51.956;5.888;2023-10-09T08:35:27;27.67;;;15.88;;
37641;SDS011;23486;51.956;5.888;2023-10-09T08:38:00;22.25;;;14.10;;
37641;SDS011;23486;51.956;5.888;2023-10-09T08:40:36;20.10;;;12.90;;
37641;SDS011;23486;51.956;5.888;2023-10-09T08:43:09;21.77;;;13.85;;
37641;SDS011;23486;51.956;5.888;2023-10-09T08:45:45;22.15;;;13.68;;
37641;SDS011;23486;51.956;5.888;2023-10-09T08:48:18;19.92;;;12.23;;
37641;SDS011;23486;51.956;5.888;2023-10-09T08:50:45;21.85;;;15.00;;
37641;SDS011;23486;51.956;5.888;2023-10-09T08:53:12;22.52;;;14.38;;
37641;SDS011;23486;51.956;5.888;2023-10-09T08:55:38;20.80;;;14.45;;
37641;SDS011;23486;51.956;5.888;2023-10-09T08:58:05;23.17;;;13.85;;
37641;SDS011;23486;51.956;5.888;2023-10-09T09:00:51;22.15;;;14.15;;
37641;SDS011;23486;51.956;5.888;2023-10-09T09:03:20;26.55;;;13.77;;
37641;SDS011;23486;51.956;5.888;2023-10-09T09:06:00;18.58;;;11.65;;
37641;SDS011;23486;51.956;5.888;2023-10-09T09:08:27;20.17;;;13.90;;
37641;SDS011;23486;51.956;5.888;2023-10-09T09:16:19;22.27;;;12.32;;
37641;SDS011;23486;51.956;5.888;2023-10-09T09:19:01;18.92;;;12.30;;
37641;SDS011;23486;51.956;5.888;2023-10-09T09:21:35;18.15;;;13.20;;
37641;SDS011;23486;51.956;5.888;2023-10-09T09:24:06;17.83;;;12.13;;
37641;SDS011;23486;51.956;5.888;2023-10-09T09:26:49;18.00;;;12.07;;
37641;SDS011;23486;51.956;5.888;2023-10-09T09:29:37;18.52;;;11.95;;
37641;SDS011;23486;51.956;5.888;2023-10-09T09:32:05;23.98;;;13.45;;
37641;SDS011;23486;51.956;5.888;2023-10-09T09:34:55;18.55;;;12.40;;
37641;SDS011;23486;51.956;5.888;2023-10-09T09:37:26;19.02;;;11.90;;
37641;SDS011;23486;51.956;5.888;2023-10-09T09:40:00;20.52;;;11.88;;
37641;SDS011;23486;51.956;5.888;2023-10-09T09:42:36;13.50;;;9.77;;
37641;SDS011;23486;51.956;5.888;2023-10-09T09:45:03;18.30;;;10.60;;
37641;SDS011;23486;51.956;5.888;2023-10-09T09:47:31;18.33;;;10.88;;
37641;SDS011;23486;51.956;5.888;2023-10-09T09:50:00;14.30;;;9.48;;
37641;SDS011;23486;51.956;5.888;2023-10-09T09:52:49;18.33;;;10.88;;
37641;SDS011;23486;51.956;5.888;2023-10-09T09:55:20;12.00;;;8.82;;
37641;SDS011;23486;51.956;5.888;2023-10-09T09:57:56;16.35;;;9.88;;
37641;SDS011;23486;51.956;5.888;2023-10-09T10:00:23;16.98;;;9.98;;
37641;SDS011;23486;51.956;5.888;2023-10-09T10:03:03;16.08;;;10.10;;
37641;SDS011;23486;51.956;5.888;2023-10-09T10:05:32;16.90;;;9.77;;
37641;SDS011;23486;51.956;5.888;2023-10-09T10:07:59;16.13;;;10.07;;
37641;SDS011;23486;51.956;5.888;2023-10-09T10:10:35;16.27;;;9.25;;
37641;SDS011;23486;51.956;5.888;2023-10-09T10:18:54;15.52;;;7.60;;
37641;SDS011;23486;51.956;5.888;2023-10-09T10:21:25;13.70;;;7.63;;
37641;SDS011;23486;51.956;5.888;2023-10-09T10:23:57;14.20;;;8.75;;
37641;SDS011;23486;51.956;5.888;2023-10-09T10:26:39;14.52;;;7.43;;
37641;SDS011;23486;51.956;5.888;2023-10-09T10:29:18;15.43;;;7.60;;
37641;SDS011;23486;51.956;5.888;2023-10-09T10:32:00;14.15;;;7.53;;
37641;SDS011;23486;51.956;5.888;2023-10-09T10:34:51;12.23;;;7.18;;
37641;SDS011;23486;51.956;5.888;2023-10-09T10:37:41;12.05;;;6.85;;
37641;SDS011;23486;51.956;5.888;2023-10-09T10:40:22;14.23;;;6.97;;
37641;SDS011;23486;51.956;5.888;2023-10-09T10:43:07;12.23;;;6.13;;
37641;SDS011;23486;51.956;5.888;2023-10-09T10:48:39;12.93;;;6.25;;
37641;SDS011;23486;51.956;5.888;2023-10-09T10:51:11;11.15;;;6.35;;
37641;SDS011;23486;51.956;5.888;2023-10-09T10:53:49;12.20;;;6.35;;
37641;SDS011;23486;51.956;5.888;2023-10-09T10:56:17;12.02;;;6.13;;
37641;SDS011;23486;51.956;5.888;2023-10-09T10:58:59;11.90;;;6.05;;
37641;SDS011;23486;51.956;5.888;2023-10-09T11:01:31;12.80;;;6.63;;
37641;SDS011;23486;51.956;5.888;2023-10-09T11:04:36;11.70;;;6.03;;
37641;SDS011;23486;51.956;5.888;2023-10-09T11:07:07;10.98;;;5.75;;
37641;SDS011;23486;51.956;5.888;2023-10-09T11:09:56;10.07;;;4.60;;
37641;SDS011;23486;51.956;5.888;2023-10-09T11:15:14;11.13;;;5.18;;
37641;SDS011;23486;51.956;5.888;2023-10-09T11:17:56;9.50;;;5.57;;
37641;SDS011;23486;51.956;5.888;2023-10-09T11:20:24;11.52;;;5.60;;
37641;SDS011;23486;51.956;5.888;2023-10-09T11:22:51;14.60;;;7.10;;
37641;SDS011;23486;51.956;5.888;2023-10-09T11:25:39;12.20;;;4.95;;
37641;SDS011;23486;51.956;5.888;2023-10-09T11:28:21;10.77;;;6.20;;
37641;SDS011;23486;51.956;5.888;2023-10-09T11:31:10;9.77;;;5.30;;
37641;SDS011;23486;51.956;5.888;2023-10-09T11:33:46;11.27;;;5.38;;
37641;SDS011;23486;51.956;5.888;2023-10-09T11:36:14;7.97;;;4.82;;
37641;SDS011;23486;51.956;5.888;2023-10-09T11:38:40;9.27;;;5.00;;
37641;SDS011;23486;51.956;5.888;2023-10-09T11:41:17;11.15;;;5.85;;
37641;SDS011;23486;51.956;5.888;2023-10-09T11:43:48;10.40;;;4.00;;
37641;SDS011;23486;51.956;5.888;2023-10-09T11:46:19;11.30;;;5.72;;
37641;SDS011;23486;51.956;5.888;2023-10-09T11:49:07;11.90;;;5.60;;
37641;SDS011;23486;51.956;5.888;2023-10-09T11:51:51;13.10;;;6.13;;
37641;SDS011;23486;51.956;5.888;2023-10-09T11:54:54;11.50;;;5.32;;
37641;SDS011;23486;51.956;5.888;2023-10-09T11:57:21;11.90;;;5.80;;
37641;SDS011;23486;51.956;5.888;2023-10-09T11:59:55;8.07;;;4.43;;
37641;SDS011;23486;51.956;5.888;2023-10-09T12:02:36;7.82;;;3.83;;
37641;SDS011;23486;51.956;5.888;2023-10-09T12:05:09;10.18;;;4.13;;
37641;SDS011;23486;51.956;5.888;2023-10-09T12:07:41;10.95;;;3.90;;
37641;SDS011;23486;51.956;5.888;2023-10-09T12:10:08;8.73;;;3.92;;
37641;SDS011;23486;51.956;5.888;2023-10-09T12:12:35;10.95;;;4.55;;
37641;SDS011;23486;51.956;5.888;2023-10-09T12:15:01;9.15;;;3.67;;
37641;SDS011;23486;51.956;5.888;2023-10-09T12:17:30;9.30;;;4.55;;
37641;SDS011;23486;51.956;5.888;2023-10-09T12:19:55;11.02;;;4.95;;
37641;SDS011;23486;51.956;5.888;2023-10-09T12:22:21;9.10;;;4.35;;
37641;SDS011;23486;51.956;5.888;2023-10-09T12:24:47;9.15;;;3.95;;
37641;SDS011;23486;51.956;5.888;2023-10-09T12:27:13;8.35;;;3.95;;
37641;SDS011;23486;51.956;5.888;2023-10-09T12:29:38;8.63;;;3.92;;
37641;SDS011;23486;51.956;5.888;2023-10-09T12:32:09;10.10;;;3.78;;
37641;SDS011;23486;51.956;5.888;2023-10-09T12:34:35;7.90;;;3.30;;
37641;SDS011;23486;51.956;5.888;2023-10-09T12:37:03;11.02;;;3.88;;
37641;SDS011;23486;51.956;5.888;2023-10-09T12:39:29;8.60;;;3.15;;
37641;SDS011;23486;51.956;5.888;2023-10-09T12:41:58;5.78;;;3.10;;
37641;SDS011;23486;51.956;5.888;2023-10-09T12:44:32;8.18;;;3.05;;
37641;SDS011;23486;51.956;5.888;2023-10-09T12:47:08;7.93;;;2.45;;
37641;SDS011;23486;51.956;5.888;2023-10-09T12:49:36;9.00;;;2.97;;
37641;SDS011;23486;51.956;5.888;2023-10-09T12:52:06;8.20;;;3.13;;
37641;SDS011;23486;51.956;5.888;2023-10-09T12:54:44;6.95;;;3.00;;
37641;SDS011;23486;51.956;5.888;2023-10-09T12:57:13;6.47;;;2.65;;
37641;SDS011;23486;51.956;5.888;2023-10-09T12:59:40;9.60;;;3.50;;
37641;SDS011;23486;51.956;5.888;2023-10-09T13:02:10;8.98;;;2.50;;
37641;SDS011;23486;51.956;5.888;2023-10-09T13:04:37;11.10;;;2.97;;
37641;SDS011;23486;51.956;5.888;2023-10-09T13:07:06;7.72;;;2.38;;
37641;SDS011;23486;51.956;5.888;2023-10-09T13:09:34;7.47;;;2.35;;
37641;SDS011;23486;51.956;5.888;2023-10-09T13:14:33;8.80;;;2.80;;
37641;SDS011;23486;51.956;5.888;2023-10-09T13:17:00;7.28;;;2.47;;
37641;SDS011;23486;51.956;5.888;2023-10-09T13:19:33;8.65;;;2.38;;
37641;SDS011;23486;51.956;5.888;2023-10-09T13:21:59;5.80;;;2.50;;
37641;SDS011;23486;51.956;5.888;2023-10-09T13:24:28;9.48;;;3.22;;
37641;SDS011;23486;51.956;5.888;2023-10-09T13:26:55;11.73;;;3.85;;
37641;SDS011;23486;51.956;5.888;2023-10-09T13:29:23;6.28;;;2.40;;
37641;SDS011;23486;51.956;5.888;2023-10-09T13:31:51;8.05;;;2.95;;
37641;SDS011;23486;51.956;5.888;2023-10-09T13:34:22;7.07;;;2.75;;
37641;SDS011;23486;51.956;5.888;2023-10-09T13:36:52;5.80;;;2.47;;
37641;SDS011;23486;51.956;5.888;2023-10-09T13:39:19;9.35;;;3.17;;
37641;SDS011;23486;51.956;5.888;2023-10-09T13:41:55;11.07;;;3.97;;
37641;SDS011;23486;51.956;5.888;2023-10-09T13:47:00;8.07;;;3.05;;
37641;SDS011;23486;51.956;5.888;2023-10-09T13:49:28;7.38;;;2.60;;
37641;SDS011;23486;51.956;5.888;2023-10-09T13:51:57;8.75;;;3.00;;
37641;SDS011;23486;51.956;5.888;2023-10-09T13:54:26;5.97;;;2.83;;
37641;SDS011;23486;51.956;5.888;2023-10-09T13:56:58;7.18;;;2.80;;
37641;SDS011;23486;51.956;5.888;2023-10-09T13:59:24;8.88;;;3.70;;
37641;SDS011;23486;51.956;5.888;2023-10-09T14:01:50;7.78;;;2.58;;
37641;SDS011;23486;51.956;5.888;2023-10-09T14:04:22;6.75;;;2.88;;
37641;SDS011;23486;51.956;5.888;2023-10-09T14:06:49;5.93;;;2.65;;
37641;SDS011;23486;51.956;5.888;2023-10-09T14:09:22;7.78;;;2.38;;
37641;SDS011;23486;51.956;5.888;2023-10-09T14:12:03;8.32;;;3.10;;
37641;SDS011;23486;51.956;5.888;2023-10-09T14:17:12;6.95;;;2.83;;
37641;SDS011;23486;51.956;5.888;2023-10-09T14:19:39;6.63;;;3.00;;
37641;SDS011;23486;51.956;5.888;2023-10-09T14:22:12;5.68;;;2.40;;
37641;SDS011;23486;51.956;5.888;2023-10-09T14:24:44;7.00;;;2.67;;
37641;SDS011;23486;51.956;5.888;2023-10-09T14:27:13;8.10;;;3.05;;
37641;SDS011;23486;51.956;5.888;2023-10-09T14:29:48;7.95;;;2.55;;
37641;SDS011;23486;51.956;5.888;2023-10-09T14:32:14;8.05;;;3.20;;
37641;SDS011;23486;51.956;5.888;2023-10-09T14:34:41;7.10;;;2.55;;
37641;SDS011;23486;51.956;5.888;2023-10-09T14:37:19;8.40;;;2.90;;
37641;SDS011;23486;51.956;5.888;2023-10-09T14:39:45;9.30;;;3.42;;
37641;SDS011;23486;51.956;5.888;2023-10-09T14:42:14;7.60;;;2.72;;
37641;SDS011;23486;51.956;5.888;2023-10-09T14:44:41;7.72;;;2.10;;
37641;SDS011;23486;51.956;5.888;2023-10-09T14:47:07;9.65;;;3.38;;
37641;SDS011;23486;51.956;5.888;2023-10-09T14:49:35;8.27;;;3.03;;
37641;SDS011;23486;51.956;5.888;2023-10-09T14:52:05;6.47;;;2.65;;
37641;SDS011;23486;51.956;5.888;2023-10-09T14:54:34;6.13;;;2.38;;
37641;SDS011;23486;51.956;5.888;2023-10-09T14:57:00;9.38;;;3.33;;
37641;SDS011;23486;51.956;5.888;2023-10-09T14:59:25;8.85;;;2.80;;
37641;SDS011;23486;51.956;5.888;2023-10-09T15:01:51;9.45;;;2.97;;
37641;SDS011;23486;51.956;5.888;2023-10-09T15:04:18;8.95;;;3.42;;
37641;SDS011;23486;51.956;5.888;2023-10-09T15:06:44;7.15;;;2.90;;
37641;SDS011;23486;51.956;5.888;2023-10-09T15:09:14;5.45;;;2.00;;
37641;SDS011;23486;51.956;5.888;2023-10-09T15:11:53;6.68;;;2.78;;
37641;SDS011;23486;51.956;5.888;2023-10-09T15:14:19;11.82;;;2.95;;
37641;SDS011;23486;51.956;5.888;2023-10-09T15:16:45;6.85;;;3.00;;
37641;SDS011;23486;51.956;5.888;2023-10-09T15:19:12;6.65;;;2.50;;
37641;SDS011;23486;51.956;5.888;2023-10-09T15:21:38;6.05;;;2.40;;
37641;SDS011;23486;51.956;5.888;2023-10-09T15:24:11;9.30;;;2.67;;
37641;SDS011;23486;51.956;5.888;2023-10-09T15:26:44;7.78;;;2.92;;
37641;SDS011;23486;51.956;5.888;2023-10-09T15:29:17;9.68;;;3.13;;
37641;SDS011;23486;51.956;5.888;2023-10-09T15:31:48;7.47;;;2.85;;
37641;SDS011;23486;51.956;5.888;2023-10-09T15:34:16;10.98;;;2.90;;
37641;SDS011;23486;51.956;5.888;2023-10-09T15:36:44;6.00;;;2.08;;
37641;SDS011;23486;51.956;5.888;2023-10-09T15:39:12;9.73;;;3.17;;
37641;SDS011;23486;51.956;5.888;2023-10-09T15:41:38;6.22;;;2.40;;
37641;SDS011;23486;51.956;5.888;2023-10-09T15:44:04;7.45;;;3.00;;